createdAt,value
2018-01-06T00:00:34.579Z,7.60
2018-01-06T00:03:02.910Z,11.20
2018-01-06T00:05:30.452Z,6.73
2018-01-06T00:07:58.834Z,11.00
2018-01-06T00:10:26.405Z,17.97
2018-01-06T00:12:53.988Z,15.97
2018-01-06T00:15:21.527Z,16.63
2018-01-06T00:17:49.847Z,10.73
2018-01-06T00:20:17.416Z,16.60
2018-01-06T00:22:45.736Z,15.63
2018-01-06T00:25:13.280Z,16.80
2018-01-06T00:27:40.848Z,11.13
2018-01-06T00:30:08.380Z,9.33
2018-01-06T00:32:35.940Z,13.00
2018-01-06T00:35:04.496Z,10.37
2018-01-06T00:37:32.037Z,26.83
2018-01-06T00:40:00.364Z,23.43
2018-01-06T00:42:27.898Z,23.70
2018-01-06T00:44:55.452Z,26.70
2018-01-06T00:47:22.992Z,27.97
2018-01-06T00:49:50.548Z,27.30
2018-01-06T00:52:18.091Z,25.53
2018-01-06T00:54:45.656Z,27.40
2018-01-06T00:57:13.968Z,15.80
2018-01-06T00:59:41.537Z,23.17
2018-01-06T01:02:09.841Z,14.77
2018-01-06T01:04:37.385Z,19.37
2018-01-06T01:07:04.946Z,16.47
2018-01-06T01:09:32.488Z,28.60
2018-01-06T01:12:00.828Z,18.33
2018-01-06T01:14:28.373Z,21.53
2018-01-06T01:16:56.915Z,22.57
2018-01-06T01:19:24.460Z,26.97
2018-01-06T01:21:52.789Z,28.70
2018-01-06T01:24:20.333Z,23.67
2018-01-06T01:26:47.896Z,22.80
2018-01-06T01:29:15.448Z,30.80
2018-01-06T01:31:43.013Z,26.33
2018-01-06T01:34:10.557Z,21.30
2018-01-06T01:36:38.129Z,24.63
2018-01-06T01:39:05.677Z,39.27
2018-01-06T01:41:33.216Z,28.80
2018-01-06T01:44:00.779Z,34.80
2018-01-06T01:46:28.336Z,30.93
2018-01-06T01:48:55.909Z,24.23
2018-01-06T01:51:23.451Z,25.07
2018-01-06T01:53:51.017Z,23.30
2018-01-06T01:56:18.557Z,27.50
2018-01-06T01:58:46.121Z,25.43
2018-01-06T02:01:14.432Z,21.87
2018-01-06T02:03:42.025Z,28.23
2018-01-06T02:06:09.568Z,35.07
2018-01-06T02:08:37.135Z,32.10
2018-01-06T02:11:04.681Z,29.47
2018-01-06T02:13:32.244Z,25.40
2018-01-06T02:16:00.551Z,24.70
2018-01-06T02:18:28.121Z,24.67
2018-01-06T02:20:56.470Z,22.53
2018-01-06T02:23:24.013Z,35.90
2018-01-06T02:25:52.341Z,28.07
2018-01-06T02:28:19.890Z,23.23
2018-01-06T02:30:48.225Z,21.53
2018-01-06T02:33:15.767Z,27.03
2018-01-06T02:35:43.337Z,28.80
2018-01-06T02:38:10.892Z,29.17
2018-01-06T02:40:38.551Z,31.07
2018-01-06T02:43:06.101Z,30.20
2018-01-06T02:45:33.668Z,26.43
2018-01-06T02:48:01.221Z,29.60
2018-01-06T02:50:28.793Z,29.00
2018-01-06T02:52:56.342Z,25.43
2018-01-06T02:55:23.930Z,24.53
2018-01-06T02:57:51.478Z,32.40
2018-01-06T03:00:19.029Z,34.33
2018-01-06T03:02:46.593Z,23.63
2018-01-06T03:05:14.910Z,31.40
2018-01-06T03:07:42.483Z,34.93
2018-01-06T03:10:10.808Z,17.60
2018-01-06T03:12:38.393Z,23.23
2018-01-06T03:15:05.947Z,25.87
2018-01-06T03:17:34.289Z,44.53
2018-01-06T03:20:01.846Z,27.50
2018-01-06T03:22:29.416Z,28.00
2018-01-06T03:24:57.739Z,22.47
2018-01-06T03:27:25.304Z,31.70
2018-01-06T03:29:52.844Z,21.53
2018-01-06T03:32:20.421Z,20.00
2018-01-06T03:34:47.971Z,19.83
2018-01-06T03:37:15.513Z,22.47
2018-01-06T03:39:43.068Z,19.57
2018-01-06T03:42:10.622Z,16.93
2018-01-06T03:44:38.190Z,22.30
2018-01-06T03:47:06.510Z,14.23
2018-01-06T03:49:34.081Z,28.30
2018-01-06T03:52:02.393Z,23.27
2018-01-06T03:54:29.962Z,20.90
2018-01-06T03:56:58.269Z,13.00
2018-01-06T03:59:26.597Z,16.23
2018-01-06T04:01:54.146Z,28.53
2018-01-06T04:04:22.482Z,20.67
2018-01-06T04:06:50.033Z,28.97
2018-01-06T04:09:18.364Z,26.73
2018-01-06T04:11:46.761Z,22.40
2018-01-06T04:14:14.330Z,22.97
2018-01-06T04:16:42.646Z,24.13
2018-01-06T04:19:10.226Z,22.67
2018-01-06T04:21:37.774Z,19.17
2018-01-06T04:24:05.322Z,22.80
2018-01-06T04:26:32.885Z,21.57
2018-01-06T04:29:00.436Z,15.63
2018-01-06T04:31:28.761Z,19.30
2018-01-06T04:33:56.304Z,15.60
2018-01-06T04:36:23.878Z,32.57
2018-01-06T04:38:51.429Z,19.70
2018-01-06T04:41:18.997Z,21.00
2018-01-06T04:43:46.536Z,17.73
2018-01-06T04:46:14.110Z,14.80
2018-01-06T04:48:41.664Z,22.53
2018-01-06T04:51:09.233Z,16.80
2018-01-06T04:53:36.808Z,35.57
2018-01-06T04:56:05.134Z,41.20
2018-01-06T04:58:33.452Z,23.83
2018-01-06T05:01:01.017Z,17.33
2018-01-06T05:03:28.564Z,28.13
2018-01-06T05:05:56.897Z,23.13
2018-01-06T05:08:24.461Z,20.03
2018-01-06T05:10:52.778Z,24.80
2018-01-06T05:13:20.341Z,19.23
2018-01-06T05:15:48.661Z,15.40
2018-01-06T05:18:16.226Z,17.73
2018-01-06T05:20:44.537Z,21.47
2018-01-06T05:23:12.874Z,15.63
2018-01-06T05:25:40.416Z,17.57
2018-01-06T05:28:08.750Z,12.27
2018-01-06T05:30:36.292Z,17.87
2018-01-06T05:33:03.858Z,19.87
2018-01-06T05:35:31.409Z,23.07
2018-01-06T05:37:58.970Z,26.20
2018-01-06T05:40:27.101Z,23.70
2018-01-06T05:42:54.673Z,22.30
2018-01-06T05:45:22.232Z,26.90
2018-01-06T05:47:50.545Z,24.17
2018-01-06T05:50:18.122Z,22.77
2018-01-06T05:52:45.666Z,24.03
2018-01-06T05:55:13.237Z,32.80
2018-01-06T05:57:40.780Z,26.47
2018-01-06T06:00:08.377Z,18.90
2018-01-06T06:02:35.924Z,15.67
2018-01-06T06:05:04.249Z,12.67
2018-01-06T06:07:31.797Z,22.20
2018-01-06T06:09:59.365Z,33.07
2018-01-06T06:12:26.918Z,31.07
2018-01-06T06:14:54.489Z,32.93
2018-01-06T06:17:22.070Z,22.93
2018-01-06T06:19:49.645Z,22.50
2018-01-06T06:22:17.196Z,17.80
2018-01-06T06:24:44.761Z,23.20
2018-01-06T06:27:12.317Z,17.93
2018-01-06T06:29:39.885Z,25.33
2018-01-06T06:32:07.445Z,23.73
2018-01-06T06:34:35.773Z,21.23
2018-01-06T06:37:03.318Z,31.63
2018-01-06T06:39:30.885Z,25.17
2018-01-06T06:41:58.434Z,24.90
2018-01-06T06:44:26.741Z,20.60
2018-01-06T06:46:54.297Z,25.87
2018-01-06T06:49:22.638Z,23.63
2018-01-06T06:51:50.202Z,27.57
2018-01-06T06:54:17.757Z,25.57
2018-01-06T06:56:46.090Z,36.10
2018-01-06T06:59:13.636Z,39.77
2018-01-06T07:01:42.037Z,16.43
2018-01-06T07:04:09.590Z,23.67
2018-01-06T07:06:37.273Z,35.00
2018-01-06T07:09:04.817Z,29.07
2018-01-06T07:11:32.394Z,26.33
2018-01-06T07:14:00.709Z,22.57
2018-01-06T07:16:28.272Z,15.70
2018-01-06T07:18:56.692Z,17.20
2018-01-06T07:21:24.264Z,29.20
2018-01-06T07:23:52.576Z,26.70
2018-01-06T07:26:20.909Z,24.63
2018-01-06T07:28:48.462Z,26.97
2018-01-06T07:31:16.773Z,18.63
2018-01-06T07:33:44.332Z,25.90
2018-01-06T07:36:12.670Z,23.23
2018-01-06T07:38:40.237Z,34.37
2018-01-06T07:41:07.804Z,33.43
2018-01-06T07:43:36.132Z,17.77
2018-01-06T07:46:03.677Z,20.27
2018-01-06T07:48:31.263Z,30.60
2018-01-06T07:50:58.814Z,24.53
2018-01-06T07:53:26.461Z,32.00
2018-01-06T07:55:54.002Z,37.13
2018-01-06T07:58:21.569Z,28.50
2018-01-06T08:00:49.133Z,26.80
2018-01-06T08:03:16.697Z,22.20
2018-01-06T08:05:44.244Z,30.33
2018-01-06T08:08:11.789Z,30.60
2018-01-06T08:10:39.365Z,26.13
2018-01-06T08:13:06.916Z,25.43
2018-01-06T08:15:35.269Z,23.77
2018-01-06T08:18:02.821Z,22.53
2018-01-06T08:20:30.379Z,22.97
2018-01-06T08:22:58.687Z,22.10
2018-01-06T08:25:27.022Z,26.33
2018-01-06T08:27:55.333Z,20.03
2018-01-06T08:30:22.898Z,20.50
2018-01-06T08:32:50.449Z,18.20
2018-01-06T08:35:18.014Z,30.57
2018-01-06T08:37:45.566Z,24.07
2018-01-06T08:40:13.133Z,13.13
2018-01-06T08:42:40.684Z,30.53
2018-01-06T08:45:08.994Z,20.07
2018-01-06T08:47:37.341Z,19.17
2018-01-06T08:50:04.886Z,22.83
2018-01-06T08:52:33.223Z,14.63
2018-01-06T08:55:00.774Z,26.57
2018-01-06T08:57:29.101Z,23.50
2018-01-06T08:59:56.641Z,21.20
2018-01-06T09:02:24.251Z,29.17
2018-01-06T09:04:51.797Z,31.23
2018-01-06T09:07:19.365Z,15.90
2018-01-06T09:09:46.920Z,19.07
2018-01-06T09:12:14.477Z,16.17
2018-01-06T09:14:42.812Z,17.13
2018-01-06T09:17:10.370Z,24.13
2018-01-06T09:19:37.925Z,17.07
2018-01-06T09:22:05.489Z,18.13
2018-01-06T09:24:33.037Z,15.23
2018-01-06T09:27:00.604Z,11.37
2018-01-06T09:29:28.154Z,15.90
2018-01-06T09:31:55.736Z,12.80
2018-01-06T09:34:23.277Z,16.40
2018-01-06T09:36:50.830Z,18.57
2018-01-06T09:39:19.165Z,8.50
2018-01-06T09:41:46.716Z,11.50
2018-01-06T09:44:15.053Z,10.40
2018-01-06T09:46:42.602Z,15.90
2018-01-06T09:49:10.933Z,7.80
2018-01-06T09:51:38.485Z,11.07
2018-01-06T09:54:06.821Z,11.37
2018-01-06T09:56:34.371Z,19.13
2018-01-06T09:59:02.712Z,18.53
2018-01-06T10:01:30.265Z,13.67
2018-01-06T10:03:58.593Z,9.73
2018-01-06T10:06:26.134Z,18.00
2018-01-06T10:08:53.701Z,11.97
2018-01-06T10:11:21.258Z,23.47
2018-01-06T10:13:48.809Z,17.07
2018-01-06T10:16:17.145Z,11.73
2018-01-06T10:18:44.692Z,11.20
2018-01-06T10:21:13.018Z,6.40
2018-01-06T10:23:40.582Z,12.53
2018-01-06T10:26:08.184Z,18.47
2018-01-06T10:28:35.741Z,11.17
2018-01-06T10:31:04.078Z,12.70
2018-01-06T10:33:31.626Z,12.33
2018-01-06T10:36:00.144Z,12.57
2018-01-06T10:44:43.921Z,5.33
2018-01-06T10:47:11.475Z,16.30
2018-01-06T10:49:39.012Z,15.40
2018-01-06T10:52:07.341Z,11.67
2018-01-06T10:54:34.892Z,11.17
2018-01-06T10:57:02.483Z,18.93
2018-01-06T10:59:30.030Z,6.23
2018-01-06T11:02:03.355Z,12.27
2018-01-06T11:04:31.059Z,9.50
2018-01-06T11:06:58.631Z,7.50
2018-01-06T11:09:26.175Z,8.13
2018-01-06T11:11:53.866Z,9.83
2018-01-06T11:14:21.399Z,16.20
2018-01-06T11:16:48.956Z,18.60
2018-01-06T11:19:17.276Z,5.83
2018-01-06T11:21:44.840Z,16.80
2018-01-06T11:24:12.381Z,8.20
2018-01-06T11:26:40.702Z,8.27
2018-01-06T11:29:08.236Z,8.67
2018-01-06T11:31:35.788Z,8.33
2018-01-06T11:34:04.262Z,12.40
2018-01-06T11:36:31.824Z,12.27
2018-01-06T11:38:59.437Z,12.30
2018-01-06T11:41:26.991Z,10.73
2018-01-06T11:43:54.552Z,11.03
2018-01-06T11:46:22.100Z,11.47
2018-01-06T11:48:49.655Z,25.73
2018-01-06T11:51:17.202Z,11.10
2018-01-06T11:53:44.804Z,6.10
2018-01-06T11:56:12.344Z,11.03
2018-01-06T11:58:39.904Z,14.77
2018-01-06T12:01:07.431Z,9.17
2018-01-06T12:03:38.190Z,9.17
2018-01-06T12:06:05.730Z,6.20
2018-01-06T12:08:33.292Z,13.73
2018-01-06T12:11:01.588Z,7.17
2018-01-06T12:13:29.913Z,14.77
2018-01-06T12:15:57.452Z,18.57
2018-01-06T12:18:24.993Z,18.30
2018-01-06T12:20:52.556Z,7.53
2018-01-06T12:23:20.372Z,11.90
2018-01-06T12:25:47.927Z,12.27
2018-01-06T12:28:16.223Z,12.33
2018-01-06T12:30:43.780Z,10.30
2018-01-06T12:33:12.093Z,15.47
2018-01-06T12:35:40.441Z,5.13
2018-01-06T12:38:07.980Z,11.07
2018-01-06T12:40:35.554Z,12.50
2018-01-06T12:43:03.127Z,9.50
2018-01-06T12:45:30.696Z,9.90
2018-01-06T12:47:58.232Z,20.10
2018-01-06T12:50:26.603Z,10.17
2018-01-06T12:52:54.124Z,12.93
2018-01-06T12:55:21.669Z,9.93
2018-01-06T12:57:49.992Z,14.63
2018-01-06T13:00:17.521Z,7.63
2018-01-06T13:02:45.834Z,9.93
2018-01-06T13:05:13.370Z,8.73
2018-01-06T13:07:40.928Z,18.23
2018-01-06T13:10:08.464Z,9.10
2018-01-06T13:12:36.019Z,22.37
2018-01-06T13:15:03.559Z,9.70
2018-01-06T13:17:31.121Z,8.70
2018-01-06T13:19:58.660Z,10.50
2018-01-06T13:22:26.219Z,8.70
2018-01-06T13:24:53.753Z,15.47
2018-01-06T13:27:22.055Z,26.00
2018-01-06T13:29:49.609Z,7.40
2018-01-06T13:32:17.908Z,11.77
2018-01-06T13:34:46.231Z,11.80
2018-01-06T13:37:13.768Z,23.07
2018-01-06T13:39:42.094Z,16.80
2018-01-06T13:42:09.641Z,8.83
2018-01-06T13:47:11.078Z,11.20
2018-01-06T13:49:38.651Z,11.10
2018-01-06T13:52:06.187Z,10.33
2018-01-06T13:54:33.736Z,12.20
2018-01-06T13:57:01.280Z,13.80
2018-01-06T13:59:28.856Z,15.23
2018-01-06T14:01:56.457Z,11.40
2018-01-06T14:04:23.992Z,10.90
2018-01-06T14:06:51.549Z,8.33
2018-01-06T14:09:19.083Z,13.17
2018-01-06T14:11:46.640Z,10.10
2018-01-06T14:14:14.941Z,12.30
2018-01-06T14:16:42.505Z,12.93
2018-01-06T14:19:10.072Z,13.30
2018-01-06T14:21:37.699Z,9.43
2018-01-06T14:24:05.297Z,6.43
2018-01-06T14:26:33.637Z,15.37
2018-01-06T14:29:01.180Z,9.13
2018-01-06T14:31:28.765Z,16.30
2018-01-06T14:33:56.307Z,10.03
2018-01-06T14:36:23.880Z,9.53
2018-01-06T14:38:52.192Z,11.63
2018-01-06T14:41:19.732Z,5.67
2018-01-06T14:43:47.296Z,9.00
2018-01-06T14:46:14.927Z,13.53
2018-01-06T14:48:42.492Z,13.87
2018-01-06T14:51:10.029Z,18.83
2018-01-06T14:53:38.479Z,12.90
2018-01-06T14:56:06.852Z,12.47
2018-01-06T14:58:34.426Z,7.60
2018-01-06T15:01:01.982Z,10.13
2018-01-06T15:03:29.573Z,7.50
2018-01-06T15:05:57.112Z,14.43
2018-01-06T15:08:24.673Z,14.20
2018-01-06T15:10:52.971Z,12.97
2018-01-06T15:13:21.298Z,10.20
2018-01-06T15:15:48.840Z,12.63
2018-01-06T15:18:16.411Z,17.57
2018-01-06T15:20:43.949Z,8.37
2018-01-06T15:23:11.495Z,20.17
2018-01-06T15:25:39.061Z,10.47
2018-01-06T15:28:06.592Z,13.10
2018-01-06T15:30:34.917Z,11.47
2018-01-06T15:33:02.488Z,17.67
2018-01-06T15:35:30.066Z,6.87
2018-01-06T15:37:58.022Z,24.80
2018-01-06T15:40:25.613Z,14.33
2018-01-06T15:42:53.163Z,14.03
2018-01-06T15:45:20.719Z,11.77
2018-01-06T15:47:49.024Z,24.53
2018-01-06T15:50:16.575Z,12.70
2018-01-06T15:52:44.874Z,11.47
2018-01-06T15:55:12.454Z,5.97
2018-01-06T15:57:39.990Z,12.80
2018-01-06T16:00:07.562Z,5.30
2018-01-06T16:02:35.101Z,12.20
2018-01-06T16:05:02.709Z,13.53
2018-01-06T16:07:38.457Z,8.87
2018-01-06T16:10:06.028Z,9.33
2018-01-06T16:12:33.658Z,14.33
2018-01-06T16:15:01.193Z,6.90
2018-01-06T16:17:29.521Z,23.17
2018-01-06T16:19:57.110Z,18.33
2018-01-06T16:22:24.682Z,24.97
2018-01-06T16:24:52.262Z,24.93
2018-01-06T16:27:19.821Z,17.57
2018-01-06T16:29:47.383Z,6.83
2018-01-06T16:32:14.956Z,17.27
2018-01-06T16:34:42.507Z,15.37
2018-01-06T16:37:10.833Z,16.43
2018-01-06T16:39:38.380Z,19.33
2018-01-06T16:42:05.960Z,7.50
2018-01-06T16:44:43.423Z,15.43
2018-01-06T16:47:11.296Z,11.27
2018-01-06T16:49:38.959Z,20.20
2018-01-06T16:52:06.534Z,13.73
2018-01-06T16:54:34.104Z,13.03
2018-01-06T16:57:01.654Z,13.50
2018-01-06T16:59:29.209Z,11.30
2018-01-06T17:01:56.741Z,11.30
2018-01-06T17:04:25.073Z,10.53
2018-01-06T17:06:52.604Z,6.30
2018-01-06T17:09:20.920Z,14.50
2018-01-06T17:11:48.455Z,15.53
2018-01-06T17:14:16.007Z,11.07
2018-01-06T17:16:43.551Z,21.17
2018-01-06T17:19:11.108Z,13.37
2018-01-06T17:21:38.690Z,22.07
2018-01-06T17:24:07.115Z,20.70
2018-01-06T17:26:34.661Z,20.47
2018-01-06T17:29:02.226Z,23.57
2018-01-06T17:31:29.772Z,21.20
2018-01-06T17:33:57.352Z,26.00
2018-01-06T17:36:24.959Z,18.80
2018-01-06T17:38:52.667Z,18.10
2018-01-06T17:41:20.204Z,11.67
2018-01-06T17:43:47.791Z,11.40
2018-01-06T17:46:15.352Z,26.63
2018-01-06T17:48:42.946Z,18.70
2018-01-06T17:51:10.480Z,18.87
2018-01-06T17:53:38.061Z,28.87
2018-01-06T17:56:05.629Z,15.80
2018-01-06T17:58:33.201Z,14.77
2018-01-06T18:01:00.773Z,21.93
2018-01-06T18:03:28.309Z,23.30
2018-01-06T18:05:55.864Z,21.30
2018-01-06T18:08:24.175Z,13.53
2018-01-06T18:10:51.732Z,17.23
2018-01-06T18:13:20.078Z,23.23
2018-01-06T18:15:47.628Z,19.40
2018-01-06T18:18:15.185Z,28.90
2018-01-06T18:20:42.764Z,23.63
2018-01-06T18:23:10.311Z,23.80
2018-01-06T18:25:38.656Z,25.17
2018-01-06T18:28:06.211Z,16.40
2018-01-06T18:30:34.527Z,31.17
2018-01-06T18:33:02.093Z,21.40
2018-01-06T18:35:29.632Z,22.30
2018-01-06T18:37:57.192Z,26.40
2018-01-06T18:40:24.731Z,30.87
2018-01-06T18:42:53.119Z,27.10
2018-01-06T18:45:21.457Z,33.33
2018-01-06T18:47:49.015Z,16.13
2018-01-06T18:50:16.552Z,20.03
2018-01-06T18:52:44.109Z,19.40
2018-01-06T18:55:11.652Z,15.73
2018-01-06T18:57:39.219Z,16.67
2018-01-06T19:00:06.765Z,21.47
2018-01-06T19:02:34.304Z,20.67
2018-01-06T19:05:01.861Z,30.27
2018-01-06T19:07:29.396Z,29.53
2018-01-06T19:09:56.957Z,23.80
2018-01-06T19:12:24.491Z,17.43
2018-01-06T19:14:52.047Z,26.97
2018-01-06T19:17:19.587Z,22.63
2018-01-06T19:19:47.156Z,27.80
2018-01-06T19:22:14.698Z,23.77
2018-01-06T19:24:43.044Z,26.33
2018-01-06T19:27:10.583Z,22.57
2018-01-06T19:29:38.145Z,29.10
2018-01-06T19:32:05.679Z,34.10
2018-01-06T19:34:33.240Z,23.10
2018-01-06T19:37:00.811Z,25.90
2018-01-06T19:39:28.348Z,28.40
2018-01-06T19:41:55.908Z,33.60
2018-01-06T19:44:23.445Z,29.63
2018-01-06T19:46:51.775Z,27.07
2018-01-06T19:49:19.331Z,23.33
2018-01-06T19:51:46.896Z,40.93
2018-01-06T19:54:14.443Z,27.80
2018-01-06T19:56:42.009Z,26.63
2018-01-06T19:59:09.547Z,21.73
2018-01-06T20:01:37.124Z,29.87
2018-01-06T20:04:04.676Z,31.30
2018-01-06T20:06:32.231Z,32.13
2018-01-06T20:08:59.781Z,28.03
2018-01-06T20:11:28.127Z,24.97
2018-01-06T20:13:55.671Z,28.30
2018-01-06T20:16:23.227Z,33.33
2018-01-06T20:18:51.535Z,34.50
2018-01-06T20:21:19.080Z,29.63
2018-01-06T20:23:47.466Z,27.33
2018-01-06T20:26:14.989Z,35.33
2018-01-06T20:28:43.315Z,25.87
2018-01-06T20:31:10.862Z,28.10
2018-01-06T20:33:38.430Z,18.83
2018-01-06T20:36:05.971Z,20.20
2018-01-06T20:38:33.537Z,15.07
2018-01-06T20:41:01.089Z,26.40
2018-01-06T20:43:29.411Z,23.20
2018-01-06T20:45:56.945Z,30.57
2018-01-06T20:48:25.282Z,22.47
2018-01-06T20:50:52.828Z,21.30
2018-01-06T20:53:20.411Z,18.70
2018-01-06T20:55:47.962Z,18.70
2018-01-06T20:58:16.271Z,16.33
2018-01-06T21:00:44.731Z,14.37
2018-01-06T21:03:13.033Z,10.10
2018-01-06T21:05:41.373Z,14.87
2018-01-06T21:08:08.915Z,18.47
2018-01-06T21:10:36.476Z,22.27
2018-01-06T21:13:04.015Z,15.20
2018-01-06T21:15:31.564Z,12.80
2018-01-06T21:17:59.110Z,14.17
2018-01-06T21:20:26.662Z,12.67
2018-01-06T21:22:54.195Z,8.83
2018-01-06T21:25:21.742Z,7.73
2018-01-06T21:27:49.284Z,9.57
2018-01-06T21:30:16.832Z,7.10
2018-01-06T21:32:45.151Z,8.83
2018-01-06T21:35:12.703Z,9.30
2018-01-06T21:37:40.251Z,8.13
2018-01-06T21:40:08.557Z,11.63
2018-01-06T21:42:36.119Z,8.47
2018-01-06T21:45:04.431Z,5.37
2018-01-06T21:47:31.985Z,9.60
2018-01-06T21:50:00.743Z,8.30
2018-01-06T21:52:28.314Z,9.57
2018-01-06T21:54:56.616Z,7.10
2018-01-06T21:57:24.166Z,7.00
2018-01-06T21:59:51.694Z,7.00
2018-01-06T22:02:19.254Z,11.27
2018-01-06T22:04:47.557Z,8.10
2018-01-06T22:07:15.091Z,5.80
2018-01-06T22:09:42.653Z,6.83
2018-01-06T22:12:10.212Z,7.50
2018-01-06T22:14:37.770Z,8.90
2018-01-06T22:17:05.311Z,6.10
2018-01-06T22:19:32.898Z,6.37
2018-01-06T22:22:00.437Z,4.70
2018-01-06T22:24:28.761Z,7.57
2018-01-06T22:26:56.295Z,4.77
2018-01-06T22:29:24.686Z,9.73
2018-01-06T22:31:52.995Z,5.73
2018-01-06T22:34:20.557Z,5.00
2018-01-06T22:36:48.856Z,4.37
2018-01-06T22:39:17.343Z,7.77
2018-01-06T22:41:45.643Z,4.67
2018-01-06T22:44:13.202Z,4.80
2018-01-06T22:46:41.513Z,4.20
2018-01-06T22:49:09.051Z,5.03
2018-01-06T22:51:37.368Z,5.60
2018-01-06T22:54:04.906Z,5.97
2018-01-06T22:56:32.465Z,3.80
2018-01-06T22:59:00.009Z,4.33
2018-01-06T23:01:27.572Z,5.60
2018-01-06T23:03:55.117Z,4.20
2018-01-06T23:06:22.682Z,6.03
2018-01-06T23:08:50.990Z,4.10
2018-01-06T23:11:18.541Z,6.33
2018-01-06T23:13:46.835Z,3.07
2018-01-06T23:16:14.400Z,3.57
2018-01-06T23:18:42.723Z,4.03
2018-01-06T23:21:10.271Z,2.93
2018-01-06T23:23:37.808Z,4.70
2018-01-06T23:26:05.376Z,4.93
2018-01-06T23:28:32.906Z,3.30
2018-01-06T23:31:00.456Z,4.40
2018-01-06T23:33:28.023Z,4.03
2018-01-06T23:35:56.358Z,3.13
2018-01-06T23:38:23.899Z,8.40
2018-01-06T23:40:51.443Z,4.87
2018-01-06T23:43:19.763Z,4.40
2018-01-06T23:45:47.308Z,12.43
2018-01-06T23:48:15.624Z,3.93
2018-01-06T23:50:43.172Z,4.40
2018-01-06T23:53:11.501Z,4.60
2018-01-06T23:55:39.034Z,5.93
2018-01-06T23:58:07.370Z,4.30
